DW7262 La Rochelle FR current weather conditions

sailwx.info

Wind from 314 at 1 knots gusting 6

Air temperature 17.2° C
Dewpoint 15.2° C

Last reported at 2014-Oct-25 16:19 UTC.
Time now 2014-Oct-26 03:01 UTC

Location: N 45°57' W 001°22'.
View on Google Maps.

See reports from other nearby stations

  
Tides and Currents Weather Stations Pressure Air Temp Water Temp Dewpoint Dewpoint Depression Visibility Wind Speed Wind Dir Waves Ship Positions
date/time (UTC)wind fromknots sea level pressurealtimeterstation pressurevisibilityair tempwater tempwave heightnotes
2014-Oct-25 16:19 314 1 gusting 6 17.2
2014-Oct-25 16:09 308 2 gusting 6 17.2
2014-Oct-25 15:46 288 2 gusting 5 17.8
2014-Oct-25 15:36 304 2 gusting 6 17.8
2014-Oct-25 15:26 312 2 gusting 6 17.8
2014-Oct-25 15:05 285 4 gusting 7 17.8
2014-Oct-25 14:54 305 4 gusting 7 17.8
2014-Oct-25 14:44 302 3 gusting 6 17.8
2014-Oct-25 14:21 319 4 gusting 8 17.8
2014-Oct-25 14:12 308 3 gusting 7 18.3
2014-Oct-25 13:37 312 4 gusting 8 18.3
2014-Oct-25 13:15 323 5 gusting 9 18.3
2014-Oct-25 13:05 301 5 gusting 9 18.3
2014-Oct-25 12:55 312 4 gusting 7 18.9
2014-Oct-25 12:44 311 4 gusting 9 18.9
2014-Oct-25 12:34 323 4 gusting 9 18.3
2014-Oct-25 11:49 311 4 gusting 8 18.3
2014-Oct-25 11:39 279 5 gusting 7 18.3
2014-Oct-25 11:28 315 2 gusting 6 18.3
2014-Oct-25 10:55 275 2 gusting 6 18.3
2014-Oct-25 10:33 305 2 gusting 5 17.8
2014-Oct-25 10:24 319 1 gusting 4 18.3
2014-Oct-25 10:14 267 0 gusting 4 17.8
2014-Oct-25 10:04 269 1 gusting 4 17.8
2014-Oct-25 09:55 288 0 gusting 2 17.8
2014-Oct-25 07:32 191 16.7
2014-Oct-25 07:22 204 16.7
2014-Oct-25 07:12 201 16.1
2014-Oct-25 07:02 149 15.6
2014-Oct-25 06:52 191 15.6
2014-Oct-25 06:41 148 15.0
2014-Oct-25 06:32 148 15.0
2014-Oct-24 19:55 156 12.8
2014-Oct-24 19:33 156 13.9
2014-Oct-24 19:23 156 13.9
2014-Oct-24 19:13 156 14.4
2014-Oct-24 18:39 128 15.0
2014-Oct-24 18:29 128 15.0
2014-Oct-24 17:55 128 15.0
2014-Oct-24 17:21 211 15.6
2014-Oct-24 17:11 210 16.1
2014-Oct-24 16:36 204 16.7
2014-Oct-24 16:15 225 16.7
2014-Oct-24 15:41 212 17.2
2014-Oct-24 15:08 160 17.2
2014-Oct-24 14:46 158 0 gusting 4 17.2
2014-Oct-24 14:00 203 2 gusting 5 17.8
2014-Oct-24 13:49 194 2 gusting 5 17.8
2014-Oct-24 13:28 160 0 gusting 4 17.2
2014-Oct-24 13:19 156 1 gusting 4 17.2
2014-Oct-24 12:45 222 2 gusting 6 17.2
2014-Oct-24 12:11 173 3 gusting 6 16.7
2014-Oct-24 11:49 138 2 gusting 6 17.2
2014-Oct-24 11:26 174 2 gusting 7 16.7
2014-Oct-24 11:16 106 2 gusting 7 16.1
2014-Oct-24 11:06 106 2 gusting 6 16.1
2014-Oct-24 10:56 138 2 gusting 6 15.6
2014-Oct-24 10:46 092 3 gusting 6 15.6
2014-Oct-24 10:36 134 2 gusting 6 15.6
2014-Oct-24 10:26 111 2 gusting 6 15.6
2014-Oct-24 10:04 109 2 gusting 6 15.0
2014-Oct-24 09:54 084 2 gusting 4 14.4
2014-Oct-24 09:44 104 2 gusting 6 13.9
2014-Oct-24 09:34 115 2 gusting 5 13.3
2014-Oct-24 09:24 091 1 gusting 6 13.3
2014-Oct-24 09:13 084 4 gusting 6 12.8
2014-Oct-24 08:51 113 0 gusting 2 12.2
2014-Oct-24 08:29 111 1 gusting 4 12.2
2014-Oct-24 08:19 115 1 gusting 4 12.2
2014-Oct-24 08:09 085 1 gusting 4 11.7
2014-Oct-24 07:59 092 0 gusting 3 11.1
2014-Oct-24 07:49 120 11.1
2014-Oct-24 07:26 082 10.0
2014-Oct-24 07:04 001 10.0
2014-Oct-24 06:54 359 10.0
2014-Oct-24 06:45 112 10.0